createdAt,value
2022-09-15T00:02:16.668Z,35.07399
2022-09-15T00:07:17.813Z,34.72592
2022-09-15T00:12:18.799Z,34.78002
2022-09-15T00:17:19.724Z,34.8515
2022-09-15T00:22:20.664Z,35.09268
2022-09-15T00:27:21.653Z,35.33208
2022-09-15T00:32:22.846Z,35.53514
2022-09-15T00:37:23.765Z,35.6486
2022-09-15T00:42:24.843Z,35.83375
2022-09-15T00:47:25.988Z,35.99455
2022-09-15T00:52:27.078Z,36.18554
2022-09-15T00:57:28.135Z,36.29227
2022-09-15T01:02:29.209Z,36.38709
2022-09-15T01:07:30.151Z,36.42259
2022-09-15T01:12:31.277Z,36.57199
2022-09-15T01:17:32.205Z,36.69721
2022-09-15T01:22:33.193Z,36.83346
2022-09-15T01:27:41.602Z,36.92298
2022-09-15T01:32:43.085Z,37.01787
2022-09-15T01:37:44.153Z,37.05401
2022-09-15T01:42:45.158Z,37.17284
2022-09-15T01:47:46.172Z,37.30888
2022-09-15T01:52:47.242Z,37.33296
2022-09-15T01:57:48.153Z,37.30923
2022-09-15T02:02:49.292Z,37.32159
2022-09-15T02:07:50.212Z,37.37536
2022-09-15T02:12:51.284Z,37.44096
2022-09-15T02:17:52.233Z,37.41187
2022-09-15T02:22:53.158Z,37.54738
2022-09-15T02:27:54.208Z,37.34548
2022-09-15T02:32:55.144Z,37.36911
2022-09-15T02:37:56.064Z,37.25614
2022-09-15T02:42:57.071Z,37.2559
2022-09-15T02:47:58.049Z,37.17379
2022-09-15T02:52:58.997Z,37.29861
2022-09-15T02:58:00.034Z,37.29317
2022-09-15T03:03:00.990Z,37.34696
2022-09-15T03:08:01.949Z,37.37681
2022-09-15T03:13:03.100Z,37.39496
2022-09-15T03:18:04.084Z,37.48991
2022-09-15T03:23:05.149Z,37.43686
2022-09-15T03:28:06.118Z,37.52011
2022-09-15T03:33:07.262Z,37.49038
2022-09-15T03:38:08.212Z,37.42524
2022-09-15T03:43:09.204Z,37.3193
2022-09-15T03:48:10.185Z,37.2717
2022-09-15T03:53:11.128Z,37.28413
2022-09-15T03:58:12.032Z,37.32582
2022-09-15T04:03:12.968Z,37.32035
2022-09-15T04:08:13.884Z,37.39782
2022-09-15T04:13:14.898Z,37.45787
2022-09-15T04:18:15.923Z,37.50572
2022-09-15T04:23:16.806Z,37.55875
2022-09-15T04:28:17.810Z,37.43477
2022-09-15T04:33:18.934Z,37.57689
2022-09-15T04:38:19.873Z,37.5712
2022-09-15T04:43:20.897Z,37.53639
2022-09-15T04:48:21.861Z,37.67257
2022-09-15T04:53:23.073Z,37.69607
2022-09-15T04:58:24.000Z,37.75488
2022-09-15T05:03:25.025Z,37.8682
2022-09-15T05:08:25.936Z,38.02163
2022-09-15T05:13:26.965Z,38.08693
2022-09-15T05:18:27.902Z,38.17598
2022-09-15T05:23:29.022Z,38.28225
2022-09-15T05:28:30.168Z,38.34118
2022-09-15T05:33:31.258Z,38.35266
2022-09-15T05:38:32.312Z,38.44094
2022-09-15T05:43:33.416Z,38.4584
2022-09-15T05:48:34.442Z,38.52299
2022-09-15T05:53:35.447Z,38.59335
2022-09-15T05:58:36.365Z,38.62243
2022-09-15T06:03:37.390Z,38.65655
2022-09-15T06:08:40.531Z,38.48434
2022-09-15T06:13:44.708Z,38.21703
2022-09-15T06:18:45.983Z,38.22844
2022-09-15T06:23:50.712Z,38.09184
2022-09-15T06:28:51.988Z,37.81771
2022-09-15T06:33:53.267Z,37.41962
2022-09-15T06:38:54.457Z,37.16426
2022-09-15T06:43:55.447Z,36.94898
2022-09-15T06:48:56.462Z,36.66778
2022-09-15T06:53:57.535Z,36.38121
2022-09-15T06:58:58.555Z,36.05388
2022-09-15T07:03:59.550Z,35.90999
2022-09-15T07:09:00.503Z,35.71836
2022-09-15T07:14:01.675Z,35.29548
2022-09-15T07:19:02.614Z,35.12243
2022-09-15T07:24:07.030Z,34.84592
2022-09-15T07:29:08.640Z,34.40565
2022-09-15T07:34:09.579Z,34.26111
2022-09-15T07:39:10.580Z,33.93923
2022-09-15T07:44:11.516Z,33.43704
2022-09-15T07:49:12.665Z,32.89414
2022-09-15T07:54:16.265Z,32.67514
2022-09-15T07:59:19.646Z,32.71326
2022-09-15T08:04:20.675Z,32.42754
2022-09-15T08:09:21.618Z,32.21543
2022-09-15T08:14:22.740Z,31.87582
2022-09-15T08:19:23.821Z,31.67744
2022-09-15T08:29:25.287Z,31.04438
2022-09-15T08:34:26.324Z,30.94416
2022-09-15T08:39:27.330Z,30.58268
2022-09-15T08:44:28.647Z,30.5393
2022-09-15T08:49:47.832Z,30.58634
2022-09-15T08:54:52.374Z,30.34786
2022-09-15T08:59:53.389Z,30.30628
2022-09-15T09:04:54.430Z,30.64519
2022-09-15T09:09:55.368Z,30.58096
2022-09-15T09:14:56.302Z,30.41284
2022-09-15T09:19:57.232Z,30.38205
2022-09-15T09:24:58.234Z,30.39694
2022-09-15T09:29:59.222Z,30.15841
2022-09-15T09:35:00.225Z,30.08845
2022-09-15T09:40:01.294Z,29.92308
2022-09-15T09:45:02.418Z,29.63682
2022-09-15T09:50:03.500Z,29.49199
2022-09-15T09:55:04.591Z,29.59014
2022-09-15T10:00:05.512Z,29.42489
2022-09-15T10:05:06.614Z,28.90325
2022-09-15T10:10:07.786Z,28.59384
2022-09-15T10:15:08.763Z,28.42486
2022-09-15T10:20:10.401Z,27.94658
2022-09-15T10:25:11.405Z,27.6192
2022-09-15T10:30:12.446Z,27.00583
2022-09-15T10:35:13.680Z,27.12647
2022-09-15T10:40:14.615Z,27.12514
2022-09-15T10:45:15.608Z,26.772
2022-09-15T10:50:16.613Z,25.63231
2022-09-15T10:55:24.812Z,25.14486
2022-09-15T11:00:38.148Z,25.02391
2022-09-15T11:05:39.125Z,24.54271
2022-09-15T11:10:40.040Z,23.6847
2022-09-15T11:15:42.184Z,23.51732
2022-09-15T11:20:43.257Z,23.77928
2022-09-15T11:25:44.169Z,23.47126
2022-09-15T11:30:47.803Z,23.59712
2022-09-15T11:35:49.200Z,23.32387
2022-09-15T11:40:50.256Z,23.39846
2022-09-15T11:45:51.236Z,23.03459
2022-09-15T11:50:52.158Z,22.78789
2022-09-15T11:55:53.165Z,22.38862
2022-09-15T12:00:54.062Z,22.21192
2022-09-15T12:05:54.986Z,21.96726
2022-09-15T12:10:55.937Z,22.19852
2022-09-15T12:15:57.487Z,22.63293
2022-09-15T12:20:58.564Z,22.85874
2022-09-15T12:25:59.463Z,22.93655
2022-09-15T12:31:00.502Z,23.05195
2022-09-15T12:36:01.614Z,23.42047
2022-09-15T12:41:02.533Z,23.5979
2022-09-15T12:46:03.711Z,23.75872
2022-09-15T12:51:04.598Z,23.87013
2022-09-15T12:56:05.489Z,23.92696
2022-09-15T13:01:18.088Z,23.76377
2022-09-15T13:06:19.818Z,23.29245
2022-09-15T13:11:20.762Z,23.38177
2022-09-15T13:16:21.728Z,23.15616
2022-09-15T13:21:22.734Z,22.63337
2022-09-15T13:26:23.949Z,22.68488
2022-09-15T13:31:24.929Z,21.66012
2022-09-15T13:36:26.630Z,21.37114
2022-09-15T13:41:27.721Z,21.20836
2022-09-15T13:46:28.942Z,21.79813
2022-09-15T13:51:29.979Z,21.92359
2022-09-15T14:01:45.351Z,21.43939
2022-09-15T14:06:46.355Z,21.57086
2022-09-15T14:11:47.298Z,21.4951
2022-09-15T14:16:48.523Z,21.33415
2022-09-15T14:21:49.478Z,21.12667
2022-09-15T14:26:50.368Z,20.53178
2022-09-15T14:31:51.479Z,20.71264
2022-09-15T14:36:52.509Z,21.07802
2022-09-15T14:41:53.473Z,21.16037
2022-09-15T14:46:54.418Z,21.15829
2022-09-15T14:51:55.335Z,21.59477
2022-09-15T14:56:58.299Z,21.79426
2022-09-15T15:01:59.309Z,22.10107
2022-09-15T15:07:00.265Z,22.11732
2022-09-15T15:12:01.237Z,22.17982
2022-09-15T15:17:02.696Z,22.29992
2022-09-15T15:22:03.671Z,22.42054
2022-09-15T15:27:04.686Z,22.47314
2022-09-15T15:32:05.650Z,22.48213
2022-09-15T15:37:06.612Z,22.19135
2022-09-15T15:42:07.543Z,22.21444
2022-09-15T15:47:08.550Z,22.24359
2022-09-15T15:52:09.620Z,22.41178
2022-09-15T15:57:10.696Z,22.60696
2022-09-15T16:02:11.839Z,22.72978
2022-09-15T16:07:12.869Z,23.03919
2022-09-15T16:12:13.789Z,23.38233
2022-09-15T16:17:15.091Z,23.80468
2022-09-15T16:22:16.017Z,24.13954
2022-09-15T16:27:16.930Z,24.45685
2022-09-15T16:32:17.867Z,24.88252
2022-09-15T16:37:18.869Z,25.1773
2022-09-15T16:42:19.782Z,25.42431
2022-09-15T16:47:21.083Z,25.63056
2022-09-15T16:52:22.352Z,25.66593
2022-09-15T16:57:23.766Z,25.70975
2022-09-15T17:02:24.984Z,25.66332
2022-09-15T17:07:25.989Z,25.5534
2022-09-15T17:12:26.961Z,25.372
2022-09-15T17:17:28.436Z,25.35309
2022-09-15T17:22:29.583Z,25.51078
2022-09-15T17:27:30.461Z,25.62488
2022-09-15T17:32:34.776Z,25.78909
2022-09-15T17:37:35.986Z,26.1869
2022-09-15T17:42:36.982Z,26.49101
2022-09-15T17:47:37.869Z,26.65958
2022-09-15T17:52:38.888Z,26.77938
2022-09-15T17:57:40.707Z,26.9793
2022-09-15T18:02:41.677Z,27.2593
2022-09-15T18:07:47.724Z,27.51969
2022-09-15T18:12:50.108Z,27.77915
2022-09-15T18:17:53.390Z,27.69714
2022-09-15T18:22:54.319Z,27.78284
2022-09-15T18:27:55.247Z,27.8206
2022-09-15T18:32:56.145Z,27.97964
2022-09-15T18:37:57.115Z,28.25792
2022-09-15T18:42:58.049Z,28.40244
2022-09-15T18:47:58.968Z,28.67388
2022-09-15T18:53:00.017Z,29.16643
2022-09-15T18:58:01.313Z,29.36321
2022-09-15T19:03:02.479Z,29.41313
2022-09-15T19:08:03.373Z,29.56842
2022-09-15T19:13:04.358Z,29.57405
2022-09-15T19:18:05.298Z,29.71075
2022-09-15T19:23:06.333Z,30.18859
2022-09-15T19:28:07.278Z,30.36214
2022-09-15T19:33:08.220Z,30.42727
2022-09-15T19:38:09.118Z,30.49845
2022-09-15T19:43:10.017Z,30.63623
2022-09-15T19:48:11.016Z,30.70855
2022-09-15T19:53:12.001Z,30.94285
2022-09-15T19:58:12.908Z,31.06945
2022-09-15T20:03:13.800Z,31.15757
2022-09-15T20:08:15.265Z,31.2756
2022-09-15T20:13:16.326Z,31.20266
2022-09-15T20:18:17.296Z,31.38857
2022-09-15T20:23:18.312Z,31.56913
2022-09-15T20:28:19.243Z,31.65812
2022-09-15T20:33:20.169Z,31.75411
2022-09-15T20:38:21.234Z,31.98152
2022-09-15T20:43:22.169Z,31.84012
2022-09-15T20:48:24.061Z,32.03714
2022-09-15T20:53:26.457Z,31.99656
2022-09-15T20:58:27.530Z,31.74403
2022-09-15T21:03:28.474Z,31.86677
2022-09-15T21:08:29.443Z,31.98805
2022-09-15T21:13:30.380Z,31.99461
2022-09-15T21:18:31.284Z,32.04963
2022-09-15T21:23:32.230Z,32.12019
2022-09-15T21:28:33.146Z,32.19673
2022-09-15T21:33:34.031Z,32.13741
2022-09-15T21:38:34.940Z,32.13022
2022-09-15T21:43:36.050Z,32.22179
2022-09-15T21:48:37.102Z,32.42595
2022-09-15T21:53:38.123Z,32.59849
2022-09-15T21:58:42.647Z,32.75415
2022-09-15T22:03:44.642Z,32.75926
2022-09-15T22:08:45.866Z,32.7064
2022-09-15T22:13:47.030Z,32.8637
2022-09-15T22:18:48.241Z,32.98235
2022-09-15T22:23:49.196Z,32.96656
2022-09-15T22:28:50.118Z,33.04546
2022-09-15T22:33:51.057Z,32.99236
2022-09-15T22:38:52.020Z,32.92062
2022-09-15T22:43:53.058Z,32.98174
2022-09-15T22:48:54.001Z,33.06143
2022-09-15T22:53:55.027Z,33.10338
2022-09-15T22:58:56.127Z,33.10891
2022-09-15T23:03:57.279Z,33.1213
2022-09-15T23:08:58.267Z,33.08004
2022-09-15T23:13:59.185Z,33.05153
2022-09-15T23:19:00.111Z,33.0396
2022-09-15T23:24:01.145Z,32.92141
2022-09-15T23:29:02.081Z,33.01128
2022-09-15T23:34:03.070Z,33.06363
2022-09-15T23:39:04.057Z,32.89645
2022-09-15T23:44:05.441Z,32.94045
2022-09-15T23:49:06.344Z,33.07886
2022-09-15T23:54:07.281Z,33.16887
2022-09-15T23:59:08.330Z,33.10865
